createdAt,value
2019-05-20T00:01:59.504Z,56.00
2019-05-20T00:04:31.071Z,56.61
2019-05-20T00:07:02.527Z,56.55
2019-05-20T00:09:33.948Z,56.52
2019-05-20T00:12:05.421Z,56.60
2019-05-20T00:14:36.979Z,56.67
2019-05-20T00:17:13.114Z,56.85
2019-05-20T00:19:45.177Z,56.82
2019-05-20T00:22:16.583Z,56.86
2019-05-20T00:24:48.185Z,57.07
2019-05-20T00:27:19.599Z,57.51
2019-05-20T00:29:51.573Z,57.52
2019-05-20T00:32:22.992Z,57.57
2019-05-20T00:34:54.440Z,57.97
2019-05-20T00:37:25.856Z,57.92
2019-05-20T00:39:57.365Z,58.06
2019-05-20T00:42:28.805Z,58.36
2019-05-20T00:45:00.333Z,58.56
2019-05-20T00:47:31.763Z,58.69
2019-05-20T00:50:03.532Z,58.81
2019-05-20T00:52:35.080Z,58.84
2019-05-20T00:55:08.238Z,58.68
2019-05-20T00:57:39.740Z,58.75
2019-05-20T01:00:11.381Z,58.92
2019-05-20T01:02:56.065Z,58.84
2019-05-20T01:05:16.747Z,58.75
2019-05-20T01:07:48.542Z,58.97
2019-05-20T01:10:21.208Z,58.88
2019-05-20T01:12:53.745Z,58.93
2019-05-20T01:15:26.092Z,58.92
2019-05-20T01:17:57.514Z,58.84
2019-05-20T01:20:29.032Z,59.04
2019-05-20T01:23:00.567Z,59.00
2019-05-20T01:25:32.043Z,58.96
2019-05-20T01:28:03.463Z,59.11
2019-05-20T01:30:34.948Z,59.35
2019-05-20T01:33:13.708Z,59.47
2019-05-20T01:35:39.491Z,60.15
2019-05-20T01:38:11.022Z,60.77
2019-05-20T01:40:43.438Z,60.66
2019-05-20T01:43:14.945Z,61.33
2019-05-20T01:45:46.438Z,61.70
2019-05-20T01:48:17.884Z,62.17
2019-05-20T01:50:49.372Z,61.55
2019-05-20T01:53:20.796Z,61.48
2019-05-20T01:55:52.306Z,61.67
2019-05-20T01:58:23.746Z,61.48
2019-05-20T02:00:55.166Z,61.05
2019-05-20T02:03:31.698Z,60.75
2019-05-20T02:05:59.864Z,60.58
2019-05-20T02:08:31.308Z,60.48
2019-05-20T02:11:02.799Z,60.45
2019-05-20T02:13:51.147Z,60.41
2019-05-20T02:16:24.262Z,60.17
2019-05-20T02:18:55.813Z,60.22
2019-05-20T02:21:27.556Z,60.13
2019-05-20T02:23:59.085Z,60.29
2019-05-20T02:26:31.588Z,59.98
2019-05-20T02:29:03.095Z,59.42
2019-05-20T02:31:34.600Z,58.65
2019-05-20T02:34:06.190Z,58.26
2019-05-20T02:36:37.717Z,58.34
2019-05-20T02:39:09.157Z,57.61
2019-05-20T02:41:40.595Z,57.02
2019-05-20T02:44:12.036Z,55.70
2019-05-20T02:46:45.006Z,55.30
2019-05-20T02:49:16.401Z,54.48
2019-05-20T02:51:47.877Z,54.15
2019-05-20T02:54:19.371Z,54.21
2019-05-20T02:56:50.903Z,53.40
2019-05-20T02:59:22.446Z,53.07
2019-05-20T03:01:53.925Z,52.96
2019-05-20T03:04:25.431Z,52.63
2019-05-20T03:06:56.943Z,51.84
2019-05-20T03:09:28.394Z,51.21
2019-05-20T03:11:59.908Z,50.79
2019-05-20T03:14:33.140Z,49.35
2019-05-20T03:17:05.713Z,48.63
2019-05-20T03:19:37.239Z,47.26
2019-05-20T03:22:08.729Z,46.68
2019-05-20T03:24:40.793Z,46.00
2019-05-20T03:27:12.374Z,45.77
2019-05-20T03:29:45.365Z,44.69
2019-05-20T03:32:18.950Z,45.12
2019-05-20T03:34:58.721Z,45.80
2019-05-20T03:37:23.556Z,45.00
2019-05-20T03:39:56.631Z,45.53
2019-05-20T03:42:28.253Z,44.69
2019-05-20T03:44:59.733Z,43.79
2019-05-20T03:47:31.153Z,44.33
2019-05-20T03:50:02.675Z,42.92
2019-05-20T03:52:34.104Z,43.58
2019-05-20T03:55:07.578Z,43.19
2019-05-20T03:57:39.074Z,42.79
2019-05-20T04:00:11.427Z,41.15
2019-05-20T04:02:42.969Z,41.36
2019-05-20T04:05:14.431Z,40.17
2019-05-20T04:07:46.044Z,41.21
2019-05-20T04:10:17.694Z,40.62
2019-05-20T04:12:49.439Z,38.70
2019-05-20T04:15:20.948Z,38.38
2019-05-20T04:17:52.530Z,38.24
2019-05-20T04:20:24.007Z,38.43
2019-05-20T04:22:55.528Z,38.49
2019-05-20T04:25:27.021Z,38.28
2019-05-20T04:27:58.837Z,38.17
2019-05-20T04:30:30.441Z,39.40
2019-05-20T04:33:01.935Z,37.72
2019-05-20T04:35:33.426Z,36.91
2019-05-20T04:38:06.136Z,37.46
2019-05-20T04:40:39.148Z,36.87
2019-05-20T04:43:10.773Z,37.21
2019-05-20T04:45:42.271Z,36.30
2019-05-20T04:48:14.173Z,35.56
2019-05-20T04:50:46.886Z,35.85
2019-05-20T04:53:18.334Z,35.43
2019-05-20T04:55:49.773Z,35.29
2019-05-20T04:58:21.265Z,36.02
2019-05-20T05:00:54.510Z,34.84
2019-05-20T05:03:25.958Z,36.40
2019-05-20T05:05:57.732Z,35.87
2019-05-20T05:08:29.226Z,36.20
2019-05-20T05:11:00.784Z,35.38
2019-05-20T05:13:32.314Z,37.44
2019-05-20T05:16:03.922Z,37.43
2019-05-20T05:18:35.515Z,36.88
2019-05-20T05:21:06.984Z,36.92
2019-05-20T05:23:38.558Z,38.27
2019-05-20T05:26:10.056Z,38.06
2019-05-20T05:28:41.627Z,39.08
2019-05-20T05:31:13.044Z,38.18
2019-05-20T05:33:44.505Z,39.05
2019-05-20T05:36:16.041Z,38.72
2019-05-20T05:38:47.548Z,39.33
2019-05-20T05:41:19.075Z,38.04
2019-05-20T05:43:50.590Z,38.60
2019-05-20T05:46:23.157Z,38.99
2019-05-20T05:48:54.733Z,40.56
2019-05-20T05:51:26.353Z,39.38
2019-05-20T05:53:57.883Z,39.24
2019-05-20T05:56:29.457Z,41.19
2019-05-20T05:59:00.886Z,40.57
2019-05-20T06:01:32.303Z,39.91
2019-05-20T06:04:04.775Z,39.84
2019-05-20T06:06:36.246Z,38.92
2019-05-20T06:09:07.962Z,39.66
2019-05-20T06:11:39.511Z,37.58
2019-05-20T06:14:11.051Z,39.06
2019-05-20T06:16:42.685Z,39.84
2019-05-20T06:19:14.173Z,37.41
2019-05-20T06:21:45.685Z,36.84
2019-05-20T06:24:17.206Z,36.49
2019-05-20T06:26:48.655Z,37.88
2019-05-20T06:29:21.820Z,36.42
2019-05-20T06:31:53.346Z,38.06
2019-05-20T06:34:24.949Z,38.73
2019-05-20T06:37:04.329Z,36.70
2019-05-20T06:39:36.513Z,36.30
2019-05-20T06:42:08.073Z,35.69
2019-05-20T06:44:52.344Z,34.78
2019-05-20T06:47:12.706Z,35.73
2019-05-20T06:49:44.148Z,36.38
2019-05-20T06:52:15.568Z,35.55
2019-05-20T06:54:47.193Z,36.42
2019-05-20T06:57:18.684Z,35.52
2019-05-20T06:59:50.049Z,36.87
2019-05-20T07:02:21.549Z,36.37
2019-05-20T07:04:53.088Z,35.92
2019-05-20T07:07:24.531Z,38.56
2019-05-20T07:09:55.962Z,38.78
2019-05-20T07:12:40.576Z,36.01
2019-05-20T07:15:02.280Z,34.23
2019-05-20T07:17:35.461Z,34.19
2019-05-20T07:20:09.893Z,33.92
2019-05-20T07:22:55.188Z,35.14
2019-05-20T07:25:14.310Z,34.71
2019-05-20T07:27:47.320Z,34.99
2019-05-20T07:30:20.698Z,34.05
2019-05-20T07:32:52.216Z,35.08
2019-05-20T07:35:30.245Z,36.58
2019-05-20T07:37:57.096Z,35.00
2019-05-20T07:40:33.285Z,33.49
2019-05-20T07:43:06.248Z,33.21
2019-05-20T07:45:38.639Z,34.52
2019-05-20T07:48:10.268Z,33.47
2019-05-20T07:50:43.094Z,33.65
2019-05-20T07:53:16.592Z,35.05
2019-05-20T07:55:59.833Z,31.91
2019-05-20T07:58:34.224Z,32.62
2019-05-20T08:01:05.743Z,33.09
2019-05-20T08:03:38.691Z,30.41
2019-05-20T08:06:10.359Z,31.30
2019-05-20T08:08:42.192Z,30.76
2019-05-20T08:11:13.688Z,31.27
2019-05-20T08:13:45.094Z,31.56
2019-05-20T08:16:16.536Z,31.37
2019-05-20T08:18:48.082Z,31.29
2019-05-20T08:21:19.607Z,32.13
2019-05-20T08:23:51.105Z,30.74
2019-05-20T08:26:22.531Z,30.92
2019-05-20T08:28:54.070Z,31.98
2019-05-20T08:31:26.521Z,30.28
2019-05-20T08:33:59.067Z,29.96
2019-05-20T08:36:30.568Z,30.47
2019-05-20T08:39:02.073Z,30.03
2019-05-20T08:41:34.922Z,30.11
2019-05-20T08:44:06.472Z,30.08
2019-05-20T08:46:37.990Z,28.86
2019-05-20T08:49:11.278Z,29.62
2019-05-20T08:51:42.715Z,29.29
2019-05-20T08:54:14.116Z,31.54
2019-05-20T08:56:49.178Z,28.84
2019-05-20T08:59:18.662Z,30.52
2019-05-20T09:01:51.754Z,31.44
2019-05-20T09:04:23.311Z,30.76
2019-05-20T09:06:54.961Z,29.45
2019-05-20T09:09:27.337Z,31.33
2019-05-20T09:12:01.160Z,30.17
2019-05-20T09:14:32.630Z,30.51
2019-05-20T09:17:04.078Z,31.20
2019-05-20T09:19:35.562Z,30.30
2019-05-20T09:22:07.731Z,32.03
2019-05-20T09:24:39.657Z,32.89
2019-05-20T09:27:14.529Z,31.91
2019-05-20T09:29:46.242Z,31.44
2019-05-20T09:32:17.778Z,32.08
2019-05-20T09:34:49.798Z,34.27
2019-05-20T09:37:21.341Z,32.78
2019-05-20T09:39:53.312Z,31.40
2019-05-20T09:42:24.874Z,33.44
2019-05-20T09:44:56.342Z,32.11
2019-05-20T09:47:27.973Z,33.57
2019-05-20T09:49:59.517Z,32.23
2019-05-20T09:52:31.751Z,31.81
2019-05-20T09:55:04.157Z,32.43
2019-05-20T09:57:38.566Z,32.97
2019-05-20T10:00:12.781Z,32.65
2019-05-20T10:02:44.506Z,33.03
2019-05-20T10:05:18.871Z,31.92
2019-05-20T10:07:50.494Z,33.82
2019-05-20T10:10:22.139Z,30.87
2019-05-20T10:12:54.760Z,30.18
2019-05-20T10:15:26.336Z,31.59
2019-05-20T10:17:57.780Z,33.30
2019-05-20T10:20:29.290Z,31.35
2019-05-20T10:23:00.821Z,31.39
2019-05-20T10:25:32.228Z,32.00
2019-05-20T10:28:05.986Z,32.68
2019-05-20T10:30:37.449Z,31.76
2019-05-20T10:33:10.509Z,31.48
2019-05-20T10:35:42.093Z,33.29
2019-05-20T10:38:13.583Z,32.47
2019-05-20T10:40:45.049Z,31.69
2019-05-20T10:43:16.538Z,31.47
2019-05-20T10:45:47.971Z,31.91
2019-05-20T10:48:19.464Z,31.61
2019-05-20T10:50:50.980Z,33.24
2019-05-20T10:53:22.522Z,31.60
2019-05-20T10:55:54.122Z,32.45
2019-05-20T10:58:26.638Z,30.42
2019-05-20T11:01:03.489Z,31.70
2019-05-20T11:03:31.269Z,31.19
2019-05-20T11:06:03.136Z,30.91
2019-05-20T11:08:34.584Z,30.26
2019-05-20T11:11:06.112Z,31.13
2019-05-20T11:13:37.587Z,31.08
2019-05-20T11:16:09.402Z,31.29
2019-05-20T11:18:42.750Z,30.91
2019-05-20T11:21:14.356Z,32.38
2019-05-20T11:23:45.870Z,29.78
2019-05-20T11:26:17.377Z,30.48
2019-05-20T11:28:48.870Z,30.93
2019-05-20T11:31:20.302Z,30.27
2019-05-20T11:33:51.744Z,31.38
2019-05-20T11:36:24.667Z,29.94
2019-05-20T11:38:57.549Z,30.73
2019-05-20T11:41:52.250Z,29.19
2019-05-20T11:44:02.494Z,30.50
2019-05-20T11:46:35.175Z,31.11
2019-05-20T11:49:06.711Z,30.06
2019-05-20T11:51:39.317Z,29.60
2019-05-20T11:54:11.508Z,31.48
2019-05-20T11:56:49.262Z,29.57
2019-05-20T11:59:27.204Z,30.63
2019-05-20T12:01:58.815Z,29.90
2019-05-20T12:04:31.300Z,29.82
2019-05-20T12:07:04.154Z,29.71
2019-05-20T12:09:49.019Z,29.07
2019-05-20T12:12:09.240Z,29.54
2019-05-20T12:14:48.935Z,28.91
2019-05-20T12:17:25.218Z,30.12
2019-05-20T12:19:56.810Z,29.30
2019-05-20T12:22:30.992Z,29.44
2019-05-20T12:25:02.505Z,29.85
2019-05-20T12:27:35.085Z,29.32
2019-05-20T12:30:07.619Z,28.89
2019-05-20T12:32:39.139Z,30.43
2019-05-20T12:35:11.693Z,30.52
2019-05-20T12:37:45.604Z,29.69
2019-05-20T12:40:16.509Z,30.24
2019-05-20T12:42:47.952Z,30.06
2019-05-20T12:45:20.069Z,29.64
2019-05-20T12:47:51.585Z,29.99
2019-05-20T12:50:27.898Z,32.55
2019-05-20T12:53:01.285Z,28.32
2019-05-20T12:55:35.197Z,29.27
2019-05-20T12:58:06.756Z,29.33
2019-05-20T13:00:38.296Z,27.64
2019-05-20T13:03:15.493Z,29.16
2019-05-20T13:05:48.603Z,29.02
2019-05-20T13:08:20.433Z,30.76
2019-05-20T13:10:51.959Z,29.16
2019-05-20T13:13:25.084Z,30.35
2019-05-20T13:15:56.490Z,29.63
2019-05-20T13:18:28.516Z,28.84
2019-05-20T13:20:59.993Z,29.46
2019-05-20T13:23:31.921Z,28.33
2019-05-20T13:26:03.429Z,29.50
2019-05-20T13:28:34.870Z,29.57
2019-05-20T13:31:06.503Z,27.81
2019-05-20T13:33:39.436Z,29.23
2019-05-20T13:36:10.946Z,27.82
2019-05-20T13:38:42.547Z,28.62
2019-05-20T13:41:15.086Z,30.67
2019-05-20T13:43:46.989Z,30.36
2019-05-20T13:46:18.497Z,28.80
2019-05-20T13:48:51.129Z,28.93
2019-05-20T13:51:22.881Z,29.34
2019-05-20T13:53:54.402Z,29.15
2019-05-20T13:56:25.855Z,29.80
2019-05-20T13:58:57.268Z,29.58
2019-05-20T14:01:28.716Z,29.65
2019-05-20T14:04:00.152Z,27.73
2019-05-20T14:06:31.647Z,27.60
2019-05-20T14:09:07.469Z,28.34
2019-05-20T14:11:37.894Z,27.89
2019-05-20T14:14:09.555Z,28.70
2019-05-20T14:16:41.158Z,28.93
2019-05-20T14:19:12.695Z,28.36
2019-05-20T14:21:51.492Z,29.75
2019-05-20T14:24:24.047Z,27.17
2019-05-20T14:27:03.006Z,27.50
2019-05-20T14:29:34.610Z,27.93
2019-05-20T14:32:13.453Z,27.86
2019-05-20T14:34:47.360Z,28.83
2019-05-20T14:37:22.604Z,28.85
2019-05-20T14:39:55.756Z,29.55
2019-05-20T14:42:30.525Z,29.23
2019-05-20T14:45:02.843Z,28.95
2019-05-20T14:47:36.686Z,29.33
2019-05-20T14:50:09.634Z,28.58
2019-05-20T14:52:41.135Z,29.03
2019-05-20T14:55:12.573Z,29.16
2019-05-20T14:57:44.663Z,28.89
2019-05-20T15:00:16.284Z,28.62
2019-05-20T15:02:50.537Z,30.08
2019-05-20T15:05:34.915Z,27.98
2019-05-20T15:08:20.126Z,29.59
2019-05-20T15:10:54.481Z,29.76
2019-05-20T15:13:29.575Z,30.12
2019-05-20T15:16:00.801Z,29.62
2019-05-20T15:18:34.289Z,29.36
2019-05-20T15:21:08.714Z,30.02
2019-05-20T15:23:40.878Z,30.10
2019-05-20T15:26:14.110Z,29.69
2019-05-20T15:28:47.837Z,29.50
2019-05-20T15:31:20.476Z,29.80
2019-05-20T15:33:55.234Z,30.68
2019-05-20T15:36:28.252Z,29.56
2019-05-20T15:39:00.707Z,30.02
2019-05-20T15:41:34.422Z,29.74
2019-05-20T15:44:05.838Z,29.44
2019-05-20T15:46:37.351Z,30.27
2019-05-20T15:49:08.860Z,30.72
2019-05-20T15:51:44.146Z,30.93
2019-05-20T15:54:18.321Z,30.90
2019-05-20T15:56:52.441Z,31.52
2019-05-20T15:59:25.655Z,31.53
2019-05-20T16:01:57.209Z,31.66
2019-05-20T16:04:28.718Z,31.31
2019-05-20T16:07:00.536Z,31.48
2019-05-20T16:09:32.020Z,32.35
2019-05-20T16:12:03.615Z,32.44
2019-05-20T16:14:37.245Z,32.60
2019-05-20T16:17:08.869Z,32.94
2019-05-20T16:19:42.473Z,32.14
2019-05-20T16:22:15.568Z,32.74
2019-05-20T16:24:52.402Z,33.15
2019-05-20T16:27:32.643Z,33.26
2019-05-20T16:30:10.010Z,33.38
2019-05-20T16:32:43.604Z,33.40
2019-05-20T16:35:16.233Z,33.98
2019-05-20T16:37:47.658Z,33.86
2019-05-20T16:40:25.455Z,34.17
2019-05-20T16:43:01.383Z,34.62
2019-05-20T16:45:38.299Z,35.31
2019-05-20T16:48:10.222Z,35.69
2019-05-20T16:50:46.728Z,36.48
2019-05-20T16:53:18.267Z,36.79
2019-05-20T16:55:50.543Z,36.75
2019-05-20T16:58:22.148Z,37.19
2019-05-20T17:00:53.800Z,37.66
2019-05-20T17:03:25.422Z,37.93
2019-05-20T17:05:58.544Z,38.09
2019-05-20T17:08:30.550Z,38.20
2019-05-20T17:11:02.479Z,38.53
2019-05-20T17:13:46.309Z,38.90
2019-05-20T17:16:41.944Z,39.04
2019-05-20T17:19:16.349Z,39.03
2019-05-20T17:21:51.102Z,39.30
2019-05-20T17:24:25.814Z,39.11
2019-05-20T17:27:00.613Z,39.30
2019-05-20T17:29:39.351Z,39.43
2019-05-20T17:32:12.260Z,39.35
2019-05-20T17:34:50.029Z,39.34
2019-05-20T17:37:33.160Z,39.31
2019-05-20T17:40:13.875Z,39.54
2019-05-20T17:42:45.904Z,39.41
2019-05-20T17:45:21.188Z,39.47
2019-05-20T17:47:56.465Z,39.69
2019-05-20T17:50:28.704Z,39.75
2019-05-20T17:53:05.956Z,40.26
2019-05-20T17:55:38.179Z,40.23
2019-05-20T17:58:09.975Z,40.29
2019-05-20T18:00:44.963Z,40.40
2019-05-20T18:03:17.676Z,40.82
2019-05-20T18:05:52.459Z,40.50
2019-05-20T18:08:26.594Z,40.76
2019-05-20T18:10:58.662Z,40.68
2019-05-20T18:13:30.532Z,41.09
2019-05-20T18:16:03.732Z,41.25
2019-05-20T18:18:36.163Z,41.50
2019-05-20T18:21:07.849Z,41.94
2019-05-20T18:23:40.818Z,41.53
2019-05-20T18:26:17.115Z,41.68
2019-05-20T18:28:52.113Z,41.86
2019-05-20T18:31:32.533Z,42.17
2019-05-20T18:34:00.731Z,42.36
2019-05-20T18:36:33.077Z,42.35
2019-05-20T18:39:11.169Z,42.55
2019-05-20T18:41:41.963Z,43.13
2019-05-20T18:48:07.289Z,44.12
2019-05-20T18:50:47.351Z,44.86
2019-05-20T18:53:32.788Z,45.58
2019-05-20T18:56:04.744Z,46.41
2019-05-20T18:58:36.252Z,47.74
2019-05-20T19:01:09.529Z,48.36
2019-05-20T19:03:45.373Z,48.78
2019-05-20T19:06:17.418Z,49.47
2019-05-20T19:08:50.514Z,49.77
2019-05-20T19:11:24.774Z,50.01
2019-05-20T19:13:58.246Z,50.01
2019-05-20T19:16:37.846Z,49.69
2019-05-20T19:19:10.031Z,49.86
2019-05-20T19:21:45.418Z,50.06
2019-05-20T19:24:19.587Z,49.64
2019-05-20T19:26:52.184Z,49.56
2019-05-20T19:29:24.738Z,49.51
2019-05-20T19:32:01.815Z,49.16
2019-05-20T19:34:31.406Z,48.99
2019-05-20T19:37:03.909Z,48.91
2019-05-20T19:39:35.407Z,48.38
2019-05-20T19:42:07.033Z,47.91
2019-05-20T19:44:40.799Z,47.64
2019-05-20T19:47:18.469Z,47.44
2019-05-20T19:49:55.219Z,47.14
2019-05-20T19:52:37.939Z,47.53
2019-05-20T19:55:25.079Z,47.57
2019-05-20T19:58:26.428Z,47.85
2019-05-20T20:01:41.351Z,47.50
2019-05-20T20:04:33.012Z,47.82
2019-05-20T20:07:52.977Z,48.17
2019-05-20T20:10:29.065Z,48.35
2019-05-20T20:13:01.610Z,48.74
2019-05-20T20:15:33.111Z,48.68
2019-05-20T20:18:04.618Z,48.93
2019-05-20T20:20:36.128Z,48.90
2019-05-20T20:23:07.587Z,48.62
2019-05-20T20:25:41.784Z,49.04
2019-05-20T20:28:13.281Z,49.08
2019-05-20T20:30:44.774Z,49.26
2019-05-20T20:33:16.297Z,49.27
2019-05-20T20:35:47.844Z,49.78
2019-05-20T20:38:19.817Z,50.05
2019-05-20T20:40:54.318Z,50.07
2019-05-20T20:43:25.902Z,50.14
2019-05-20T20:46:01.197Z,50.10
2019-05-20T20:48:37.023Z,50.13
2019-05-20T20:51:15.460Z,50.65
2019-05-20T20:53:52.730Z,50.85
2019-05-20T20:56:25.742Z,51.12
2019-05-20T20:58:57.229Z,51.33
2019-05-20T21:01:28.658Z,51.65
2019-05-20T21:04:00.244Z,51.55
2019-05-20T21:06:31.749Z,52.04
2019-05-20T21:09:04.367Z,52.27
2019-05-20T21:11:37.516Z,52.43
2019-05-20T21:14:09.022Z,52.75
2019-05-20T21:16:40.449Z,52.99
2019-05-20T21:19:11.962Z,53.15
2019-05-20T21:21:43.506Z,53.38
2019-05-20T21:24:15.037Z,53.58
2019-05-20T21:26:46.533Z,53.95
2019-05-20T21:29:19.817Z,54.27
2019-05-20T21:31:51.396Z,54.31
2019-05-20T21:34:47.836Z,54.29
2019-05-20T21:37:20.566Z,54.54
2019-05-20T21:39:54.341Z,54.69
2019-05-20T21:42:25.730Z,55.32
2019-05-20T21:45:01.910Z,55.33
2019-05-20T21:47:33.258Z,55.29
2019-05-20T21:50:06.560Z,55.22
2019-05-20T21:52:54.600Z,55.43
2019-05-20T21:55:31.502Z,55.46
2019-05-20T21:58:08.978Z,55.35
2019-05-20T22:00:56.563Z,55.54
2019-05-20T22:03:31.476Z,55.36
2019-05-20T22:06:02.822Z,55.63
2019-05-20T22:08:34.245Z,55.76
2019-05-20T22:11:05.752Z,55.86
2019-05-20T22:13:37.262Z,56.52
2019-05-20T22:16:08.754Z,56.71
2019-05-20T22:18:40.249Z,57.13
2019-05-20T22:21:14.872Z,57.13
2019-05-20T22:23:54.042Z,57.33
2019-05-20T22:26:25.525Z,57.15
2019-05-20T22:28:57.054Z,57.14
2019-05-20T22:31:28.679Z,57.66
2019-05-20T22:34:00.633Z,57.94
2019-05-20T22:36:32.585Z,58.57
2019-05-20T22:39:05.504Z,58.98
2019-05-20T22:41:36.921Z,59.05
2019-05-20T22:44:08.340Z,59.07
2019-05-20T22:46:39.854Z,58.93
2019-05-20T22:49:11.377Z,59.00
2019-05-20T22:51:42.908Z,59.07
2019-05-20T22:54:14.551Z,59.26
2019-05-20T22:56:49.150Z,59.10
2019-05-20T22:59:20.720Z,59.21
2019-05-20T23:01:52.732Z,59.13
2019-05-20T23:04:24.230Z,59.22
2019-05-20T23:06:56.685Z,59.25
2019-05-20T23:09:28.825Z,59.09
2019-05-20T23:12:03.465Z,59.00
2019-05-20T23:14:35.015Z,59.22
2019-05-20T23:17:06.455Z,59.26
2019-05-20T23:19:37.964Z,58.98
2019-05-20T23:22:09.748Z,59.22
2019-05-20T23:24:41.772Z,59.00
2019-05-20T23:27:28.558Z,59.19
2019-05-20T23:30:00.064Z,58.92
2019-05-20T23:32:31.497Z,58.60
2019-05-20T23:35:03.030Z,58.56
2019-05-20T23:37:35.059Z,58.82
2019-05-20T23:40:07.501Z,58.61
2019-05-20T23:42:38.888Z,58.35
2019-05-20T23:45:11.146Z,58.33
2019-05-20T23:47:42.556Z,58.32
2019-05-20T23:50:14.303Z,57.82
2019-05-20T23:52:46.048Z,57.89
2019-05-20T23:55:17.402Z,57.75
2019-05-20T23:57:50.546Z,57.85
